createdAt,value
2018-03-19T00:01:22.881Z,84.10
2018-03-19T00:03:50.402Z,84.10
2018-03-19T00:06:17.974Z,83.90
2018-03-19T00:08:45.497Z,83.70
2018-03-19T00:11:13.429Z,83.90
2018-03-19T00:13:40.953Z,83.90
2018-03-19T00:16:08.616Z,83.80
2018-03-19T00:18:36.139Z,83.80
2018-03-19T00:21:04.086Z,83.80
2018-03-19T00:23:31.613Z,83.80
2018-03-19T00:25:59.161Z,83.70
2018-03-19T00:28:26.684Z,83.80
2018-03-19T00:30:54.596Z,83.70
2018-03-19T00:33:22.141Z,83.70
2018-03-19T00:35:49.657Z,83.50
2018-03-19T00:38:17.679Z,83.50
2018-03-19T00:40:45.203Z,83.30
2018-03-19T00:43:12.745Z,83.40
2018-03-19T00:45:40.662Z,83.10
2018-03-19T00:48:08.223Z,83.00
2018-03-19T00:50:35.744Z,83.00
2018-03-19T00:53:03.303Z,83.20
2018-03-19T00:55:30.835Z,83.50
2018-03-19T00:57:58.756Z,83.30
2018-03-19T01:00:26.282Z,83.30
2018-03-19T01:02:53.811Z,83.10
2018-03-19T01:05:21.483Z,83.70
2018-03-19T01:07:49.428Z,83.40
2018-03-19T01:10:16.979Z,83.30
2018-03-19T01:12:44.498Z,83.40
2018-03-19T01:15:12.108Z,83.30
2018-03-19T01:17:39.627Z,83.30
2018-03-19T01:20:07.188Z,83.30
2018-03-19T01:22:34.720Z,83.10
2018-03-19T01:25:02.668Z,83.00
2018-03-19T01:27:30.686Z,83.30
2018-03-19T01:29:58.341Z,83.30
2018-03-19T01:32:25.883Z,83.10
2018-03-19T01:34:53.397Z,82.80
2018-03-19T01:37:20.959Z,82.70
2018-03-19T01:39:48.626Z,82.90
2018-03-19T01:42:16.240Z,82.70
2018-03-19T01:44:43.795Z,82.70
2018-03-19T01:47:11.406Z,82.70
2018-03-19T01:49:39.329Z,82.60
2018-03-19T01:52:06.880Z,82.60
2018-03-19T01:54:34.455Z,82.40
2018-03-19T01:57:01.993Z,82.40
2018-03-19T01:59:29.583Z,82.30
2018-03-19T02:01:57.139Z,82.50
2018-03-19T02:04:24.692Z,82.40
2018-03-19T02:06:52.243Z,82.40
2018-03-19T02:09:19.768Z,82.70
2018-03-19T02:11:47.707Z,82.40
2018-03-19T02:14:15.235Z,82.30
2018-03-19T02:16:42.751Z,82.30
2018-03-19T02:19:10.713Z,82.00
2018-03-19T02:21:38.628Z,82.10
2018-03-19T02:24:06.307Z,81.90
2018-03-19T02:26:33.816Z,81.90
2018-03-19T02:29:01.372Z,81.90
2018-03-19T02:31:28.935Z,81.80
2018-03-19T02:33:56.470Z,81.90
2018-03-19T02:36:24.462Z,82.30
2018-03-19T02:38:52.010Z,82.30
2018-03-19T02:41:19.584Z,82.30
2018-03-19T02:43:47.526Z,82.10
2018-03-19T02:46:15.142Z,82.30
2018-03-19T02:48:42.698Z,82.30
2018-03-19T02:51:10.228Z,82.10
2018-03-19T02:53:38.066Z,82.40
2018-03-19T02:56:06.004Z,82.50
2018-03-19T02:58:33.532Z,82.50
2018-03-19T03:01:01.058Z,82.40
2018-03-19T03:03:28.590Z,82.40
2018-03-19T03:05:56.539Z,82.30
2018-03-19T03:08:24.045Z,82.00
2018-03-19T03:10:51.583Z,82.10
2018-03-19T03:13:19.600Z,82.60
2018-03-19T03:15:47.135Z,82.40
2018-03-19T03:18:14.659Z,81.90
2018-03-19T03:20:42.212Z,81.90
2018-03-19T03:23:09.777Z,81.50
2018-03-19T03:25:37.289Z,81.40
2018-03-19T03:28:04.931Z,81.50
2018-03-19T03:30:46.533Z,81.70
2018-03-19T03:33:14.080Z,81.40
2018-03-19T03:35:41.606Z,81.40
2018-03-19T03:38:09.535Z,81.60
2018-03-19T03:40:37.052Z,81.50
2018-03-19T03:43:04.579Z,81.70
2018-03-19T03:45:32.084Z,81.70
2018-03-19T03:47:59.639Z,81.50
2018-03-19T03:50:27.219Z,81.50
2018-03-19T03:52:54.768Z,81.90
2018-03-19T03:55:22.277Z,81.80
2018-03-19T03:57:50.215Z,81.80
2018-03-19T04:00:17.719Z,81.80
2018-03-19T04:02:45.651Z,82.10
2018-03-19T04:05:13.191Z,82.40
2018-03-19T04:07:40.806Z,82.40
2018-03-19T04:10:08.708Z,82.60
2018-03-19T04:12:36.243Z,82.50
2018-03-19T04:15:03.751Z,82.30
2018-03-19T04:17:31.266Z,82.40
2018-03-19T04:19:58.795Z,82.60
2018-03-19T04:22:26.707Z,82.30
2018-03-19T04:24:54.245Z,82.30
2018-03-19T04:27:21.756Z,82.40
2018-03-19T04:29:49.291Z,82.40
2018-03-19T04:32:16.853Z,82.40
2018-03-19T04:34:44.407Z,82.00
2018-03-19T04:37:11.921Z,82.10
2018-03-19T04:39:39.866Z,81.70
2018-03-19T04:42:07.396Z,81.70
2018-03-19T04:44:34.932Z,81.60
2018-03-19T04:47:02.443Z,81.60
2018-03-19T04:49:30.378Z,81.40
2018-03-19T04:51:57.908Z,81.60
2018-03-19T04:54:25.454Z,81.50
2018-03-19T04:56:53.029Z,81.40
2018-03-19T04:59:20.550Z,81.10
2018-03-19T05:01:48.483Z,81.30
2018-03-19T05:04:16.036Z,81.00
2018-03-19T05:06:43.567Z,80.80
2018-03-19T05:09:11.471Z,81.10
2018-03-19T05:11:39.016Z,81.10
2018-03-19T05:14:06.523Z,80.90
2018-03-19T05:16:34.537Z,80.80
2018-03-19T05:19:02.077Z,80.60
2018-03-19T05:21:29.612Z,80.60
2018-03-19T05:23:57.516Z,80.90
2018-03-19T05:26:25.071Z,80.90
2018-03-19T05:28:52.978Z,81.20
2018-03-19T05:31:20.516Z,81.20
2018-03-19T05:33:48.031Z,81.30
2018-03-19T05:36:15.935Z,81.40
2018-03-19T05:38:43.967Z,80.90
2018-03-19T05:41:11.499Z,80.90
2018-03-19T05:43:39.434Z,81.00
2018-03-19T05:46:06.952Z,80.90
2018-03-19T05:48:34.503Z,81.00
2018-03-19T05:51:02.028Z,81.20
2018-03-19T05:53:29.555Z,80.90
2018-03-19T05:55:57.076Z,81.20
2018-03-19T05:58:24.628Z,81.20
2018-03-19T06:00:52.540Z,81.20
2018-03-19T06:03:20.165Z,81.40
2018-03-19T06:05:47.678Z,81.20
2018-03-19T06:08:15.222Z,81.20
2018-03-19T06:10:42.756Z,81.40
2018-03-19T06:13:10.306Z,81.40
2018-03-19T06:15:37.820Z,81.30
2018-03-19T06:18:05.392Z,81.30
2018-03-19T06:20:33.331Z,81.30
2018-03-19T06:23:00.848Z,81.50
2018-03-19T06:25:28.406Z,81.50
2018-03-19T06:27:55.920Z,81.60
2018-03-19T06:30:23.475Z,81.20
2018-03-19T06:32:50.992Z,81.50
2018-03-19T06:35:18.525Z,81.50
2018-03-19T06:37:46.522Z,81.20
2018-03-19T06:40:14.056Z,81.20
2018-03-19T06:42:41.580Z,80.80
2018-03-19T06:45:09.106Z,81.00
2018-03-19T06:47:36.627Z,81.00
2018-03-19T06:50:04.567Z,81.10
2018-03-19T06:52:32.118Z,80.90
2018-03-19T06:54:59.648Z,81.20
2018-03-19T06:57:27.210Z,81.30
2018-03-19T06:59:54.744Z,81.30
2018-03-19T07:02:22.295Z,81.20
2018-03-19T07:04:49.814Z,80.90
2018-03-19T07:07:17.357Z,80.90
2018-03-19T07:09:44.877Z,80.90
2018-03-19T07:12:12.427Z,80.60
2018-03-19T07:14:39.963Z,80.60
2018-03-19T07:17:07.892Z,80.60
2018-03-19T07:19:35.521Z,80.80
2018-03-19T07:22:03.059Z,80.80
2018-03-19T07:24:30.983Z,80.80
2018-03-19T07:26:58.508Z,80.80
2018-03-19T07:29:26.091Z,80.80
2018-03-19T07:31:53.627Z,80.80
2018-03-19T07:34:21.167Z,81.10
2018-03-19T07:36:48.690Z,80.90
2018-03-19T07:39:16.236Z,80.80
2018-03-19T07:41:43.749Z,80.50
2018-03-19T07:44:11.299Z,80.50
2018-03-19T07:46:39.217Z,80.30
2018-03-19T07:49:06.775Z,80.30
2018-03-19T07:51:34.284Z,80.30
2018-03-19T07:54:01.853Z,80.50
2018-03-19T07:56:29.842Z,80.20
2018-03-19T07:58:57.414Z,80.90
2018-03-19T08:01:24.943Z,80.80
2018-03-19T08:03:52.491Z,80.90
2018-03-19T08:06:20.012Z,80.80
2018-03-19T08:08:47.619Z,80.80
2018-03-19T08:11:15.161Z,80.60
2018-03-19T08:13:42.684Z,80.40
2018-03-19T08:16:10.247Z,80.40
2018-03-19T08:18:37.868Z,80.40
2018-03-19T08:21:05.416Z,81.10
2018-03-19T08:23:32.934Z,81.30
2018-03-19T08:26:01.047Z,81.00
2018-03-19T08:28:28.563Z,81.10
2018-03-19T08:30:56.516Z,81.10
2018-03-19T08:33:24.447Z,81.10
2018-03-19T08:35:52.147Z,81.10
2018-03-19T08:38:20.089Z,80.90
2018-03-19T08:40:47.640Z,80.30
2018-03-19T08:43:15.155Z,80.50
2018-03-19T08:45:43.133Z,80.50
2018-03-19T08:48:10.664Z,80.40
2018-03-19T08:50:38.597Z,80.50
2018-03-19T08:53:06.110Z,80.50
2018-03-19T08:55:33.659Z,80.50
2018-03-19T08:58:01.576Z,80.00
2018-03-19T09:00:29.127Z,80.20
2018-03-19T09:02:56.803Z,80.20
2018-03-19T09:05:24.345Z,79.90
2018-03-19T09:07:51.874Z,79.90
2018-03-19T09:10:19.400Z,79.60
2018-03-19T09:12:46.978Z,79.70
2018-03-19T09:15:14.907Z,79.60
2018-03-19T09:17:42.450Z,79.60
2018-03-19T09:20:09.979Z,79.50
2018-03-19T09:22:37.523Z,79.70
2018-03-19T09:25:05.044Z,79.70
2018-03-19T09:27:32.575Z,79.60
2018-03-19T09:30:00.101Z,79.60
2018-03-19T09:32:27.643Z,79.50
2018-03-19T09:34:55.563Z,79.50
2018-03-19T09:37:23.102Z,79.50
2018-03-19T09:39:50.633Z,79.40
2018-03-19T09:42:18.568Z,79.50
2018-03-19T09:44:46.195Z,79.20
2018-03-19T09:47:13.708Z,79.10
2018-03-19T09:49:41.247Z,79.60
2018-03-19T09:52:08.874Z,79.60
2018-03-19T09:54:36.498Z,79.40
2018-03-19T09:57:04.016Z,79.40
2018-03-19T09:59:31.548Z,79.00
2018-03-19T10:01:59.058Z,79.00
2018-03-19T10:04:26.592Z,79.10
2018-03-19T10:06:54.111Z,79.10
2018-03-19T10:09:21.649Z,79.00
2018-03-19T10:11:49.575Z,79.40
2018-03-19T10:14:17.135Z,79.20
2018-03-19T10:16:44.663Z,79.20
2018-03-19T10:19:12.175Z,78.80
2018-03-19T10:21:39.756Z,78.90
2018-03-19T10:24:07.671Z,79.10
2018-03-19T10:26:35.207Z,79.10
2018-03-19T10:29:02.716Z,79.10
2018-03-19T10:31:30.259Z,79.40
2018-03-19T10:33:57.784Z,79.10
2018-03-19T10:36:25.323Z,79.00
2018-03-19T10:38:52.869Z,79.00
2018-03-19T10:41:20.809Z,79.00
2018-03-19T10:43:48.328Z,78.90
2018-03-19T10:46:15.856Z,78.70
2018-03-19T10:48:43.439Z,78.80
2018-03-19T10:51:10.974Z,78.80
2018-03-19T10:53:38.571Z,78.90
2018-03-19T10:56:06.085Z,78.90
2018-03-19T10:58:33.625Z,78.80
2018-03-19T11:01:07.230Z,78.90
2018-03-19T11:03:35.164Z,78.80
2018-03-19T11:06:08.339Z,78.80
2018-03-19T11:08:35.865Z,78.40
2018-03-19T11:11:03.763Z,79.00
2018-03-19T11:13:31.291Z,79.00
2018-03-19T11:15:58.808Z,78.90
2018-03-19T11:18:26.366Z,78.50
2018-03-19T11:20:53.879Z,78.40
2018-03-19T11:23:21.410Z,78.30
2018-03-19T11:25:49.341Z,78.50
2018-03-19T11:28:16.900Z,78.50
2018-03-19T11:30:44.437Z,78.40
2018-03-19T11:33:11.961Z,78.20
2018-03-19T11:35:39.902Z,77.50
2018-03-19T11:38:07.419Z,77.50
2018-03-19T11:40:34.960Z,77.40
2018-03-19T11:43:02.472Z,77.80
2018-03-19T11:45:30.042Z,77.80
2018-03-19T11:47:57.967Z,77.40
2018-03-19T11:50:25.509Z,76.90
2018-03-19T11:52:53.165Z,76.90
2018-03-19T11:55:20.699Z,77.10
2018-03-19T11:57:48.603Z,77.60
2018-03-19T12:00:16.174Z,77.60
2018-03-19T12:02:43.694Z,77.60
2018-03-19T12:05:11.620Z,77.60
2018-03-19T12:07:39.245Z,77.60
2018-03-19T12:10:06.763Z,77.70
2018-03-19T12:12:34.716Z,78.20
2018-03-19T12:15:02.330Z,78.20
2018-03-19T12:17:29.927Z,78.40
2018-03-19T12:19:57.455Z,78.80
2018-03-19T12:22:25.012Z,78.80
2018-03-19T12:24:52.565Z,78.30
2018-03-19T12:27:20.135Z,78.30
2018-03-19T12:29:47.659Z,78.80
2018-03-19T12:32:15.217Z,79.20
2018-03-19T12:34:43.121Z,78.80
2018-03-19T12:37:10.692Z,78.80
2018-03-19T12:39:38.237Z,78.80
2018-03-19T12:42:05.808Z,78.70
2018-03-19T12:44:33.349Z,78.60
2018-03-19T12:47:01.703Z,78.90
2018-03-19T12:49:29.260Z,78.80
2018-03-19T12:51:56.803Z,78.80
2018-03-19T12:54:24.772Z,78.80
2018-03-19T12:56:52.288Z,78.80
2018-03-19T12:59:19.833Z,78.90
2018-03-19T13:01:47.374Z,78.60
2018-03-19T13:04:14.951Z,78.60
2018-03-19T13:06:42.480Z,78.90
2018-03-19T13:09:10.001Z,78.90
2018-03-19T13:11:37.543Z,78.90
2018-03-19T13:14:05.063Z,78.80
2018-03-19T13:16:32.611Z,78.90
2018-03-19T13:19:00.277Z,79.10
2018-03-19T13:21:27.827Z,79.00
2018-03-19T13:23:55.753Z,78.90
2018-03-19T13:26:23.346Z,78.90
2018-03-19T13:28:51.262Z,79.10
2018-03-19T13:31:18.806Z,79.10
2018-03-19T13:33:46.323Z,79.50
2018-03-19T13:36:14.335Z,79.10
2018-03-19T13:38:41.855Z,79.10
2018-03-19T13:41:09.374Z,78.50
2018-03-19T13:43:36.928Z,78.00
2018-03-19T13:46:04.437Z,77.80
2018-03-19T13:48:31.967Z,77.50
2018-03-19T13:50:59.888Z,77.60
2018-03-19T13:53:27.514Z,78.10
2018-03-19T13:55:54.979Z,78.10
2018-03-19T13:58:22.513Z,78.30
2018-03-19T14:00:50.462Z,78.50
2018-03-19T14:03:17.993Z,78.50
2018-03-19T14:05:45.552Z,78.90
2018-03-19T14:08:13.103Z,78.60
2018-03-19T14:10:40.635Z,78.60
2018-03-19T14:13:08.181Z,78.60
2018-03-19T14:15:36.101Z,79.00
2018-03-19T14:18:03.631Z,79.00
2018-03-19T14:20:31.145Z,79.40
2018-03-19T14:22:58.676Z,79.60
2018-03-19T14:25:26.187Z,79.10
2018-03-19T14:27:53.926Z,79.10
2018-03-19T14:30:21.663Z,78.90
2018-03-19T14:32:49.225Z,79.00
2018-03-19T14:35:16.778Z,79.50
2018-03-19T14:37:44.297Z,79.90
2018-03-19T14:40:11.841Z,79.90
2018-03-19T14:42:39.762Z,79.60
2018-03-19T14:45:07.325Z,79.60
2018-03-19T14:47:34.859Z,79.80
2018-03-19T14:50:02.415Z,79.80
2018-03-19T14:52:29.945Z,80.00
2018-03-19T14:54:57.957Z,80.10
2018-03-19T14:57:25.475Z,80.50
2018-03-19T14:59:53.007Z,80.50
2018-03-19T15:02:20.531Z,80.60
2018-03-19T15:04:48.097Z,80.40
2018-03-19T15:07:15.654Z,80.40
2018-03-19T15:09:43.207Z,80.50
2018-03-19T15:12:10.733Z,81.10
2018-03-19T15:14:38.291Z,81.10
2018-03-19T15:17:05.819Z,80.60
2018-03-19T15:19:33.778Z,80.00
2018-03-19T15:22:01.704Z,80.30
2018-03-19T15:24:29.248Z,80.30
2018-03-19T15:26:56.776Z,80.50
2018-03-19T15:29:24.716Z,80.80
2018-03-19T15:31:52.236Z,80.90
2018-03-19T15:34:19.755Z,81.10
2018-03-19T15:36:47.694Z,81.50
2018-03-19T15:39:15.210Z,81.50
2018-03-19T15:41:42.744Z,81.70
2018-03-19T15:44:10.662Z,81.60
2018-03-19T15:46:38.204Z,81.60
2018-03-19T15:49:05.727Z,82.00
2018-03-19T15:51:33.661Z,82.50
2018-03-19T15:54:01.195Z,82.60
2018-03-19T15:56:28.820Z,82.70
2018-03-19T15:58:56.743Z,83.30
2018-03-19T16:01:24.276Z,83.10
2018-03-19T16:03:51.792Z,83.20
2018-03-19T16:06:19.748Z,83.90
2018-03-19T16:08:47.262Z,84.10
2018-03-19T16:11:14.796Z,84.20
2018-03-19T16:13:42.382Z,84.20
2018-03-19T16:16:10.012Z,84.30
2018-03-19T16:18:37.603Z,84.30
2018-03-19T16:21:05.140Z,84.40
2018-03-19T16:23:32.696Z,84.40
2018-03-19T16:26:00.243Z,84.40
2018-03-19T16:28:28.204Z,84.40
2018-03-19T16:30:56.117Z,84.50
2018-03-19T16:33:23.670Z,84.50
2018-03-19T16:35:51.421Z,84.60
2018-03-19T16:38:18.947Z,84.90
2018-03-19T16:40:46.893Z,84.90
2018-03-19T16:43:14.439Z,84.90
2018-03-19T16:45:41.964Z,84.90
2018-03-19T16:48:09.499Z,84.70
2018-03-19T16:50:37.031Z,84.60
2018-03-19T16:53:04.595Z,85.40
2018-03-19T16:55:32.104Z,85.40
2018-03-19T16:57:59.965Z,85.40
2018-03-19T17:00:27.528Z,85.20
2018-03-19T17:02:55.097Z,85.10
2018-03-19T17:05:22.652Z,85.10
2018-03-19T17:07:50.185Z,85.30
2018-03-19T17:10:17.737Z,85.50
2018-03-19T17:12:45.249Z,85.70
2018-03-19T17:15:12.917Z,85.80
2018-03-19T17:17:40.419Z,85.80
2018-03-19T17:20:07.971Z,85.80
2018-03-19T17:22:35.870Z,85.80
2018-03-19T17:25:03.404Z,85.80
2018-03-19T17:27:30.927Z,85.90
2018-03-19T17:29:58.471Z,86.20
2018-03-19T17:32:26.018Z,86.10
2018-03-19T17:34:53.580Z,86.10
2018-03-19T17:37:21.105Z,86.20
2018-03-19T17:39:48.612Z,86.20
2018-03-19T17:42:16.147Z,86.20
2018-03-19T17:44:43.676Z,86.30
2018-03-19T17:47:11.215Z,86.30
2018-03-19T17:49:38.731Z,86.70
2018-03-19T17:52:06.287Z,86.70
2018-03-19T17:54:33.811Z,86.70
2018-03-19T17:57:01.359Z,86.70
2018-03-19T17:59:28.983Z,86.70
2018-03-19T18:01:56.542Z,86.70
2018-03-19T18:04:24.474Z,86.70
2018-03-19T18:06:52.029Z,86.70
2018-03-19T18:09:19.550Z,86.90
2018-03-19T18:11:47.483Z,86.70
2018-03-19T18:14:15.105Z,86.70
2018-03-19T18:16:42.674Z,86.70
2018-03-19T18:19:10.202Z,86.80
2018-03-19T18:21:38.200Z,86.80
2018-03-19T18:24:05.727Z,86.80
2018-03-19T18:26:33.256Z,86.90
2018-03-19T18:29:01.298Z,86.90
2018-03-19T18:31:28.860Z,86.80
2018-03-19T18:33:56.516Z,86.70
2018-03-19T18:36:24.090Z,86.70
2018-03-19T18:38:52.211Z,86.70
2018-03-19T18:41:19.759Z,86.60
2018-03-19T18:43:48.718Z,86.50
2018-03-19T18:46:16.561Z,86.50
2018-03-19T18:48:44.109Z,86.50
2018-03-19T18:51:11.635Z,86.20
2018-03-19T18:53:39.181Z,86.20
2018-03-19T18:56:07.128Z,86.30
2018-03-19T18:58:34.841Z,86.30
2018-03-19T19:01:02.369Z,86.30
2018-03-19T19:03:30.439Z,86.30
2018-03-19T19:05:58.597Z,86.60
2018-03-19T19:08:26.138Z,86.60
2018-03-19T19:10:53.815Z,86.70
2018-03-19T19:13:21.771Z,86.60
2018-03-19T19:15:49.398Z,86.60
2018-03-19T19:18:16.927Z,86.80
2018-03-19T19:20:44.827Z,86.70
2018-03-19T19:23:12.519Z,86.70
2018-03-19T19:25:40.460Z,86.80
2018-03-19T19:28:08.021Z,87.00
2018-03-19T19:30:35.543Z,86.60
2018-03-19T19:33:03.516Z,86.70
2018-03-19T19:35:31.040Z,86.60
2018-03-19T19:37:58.561Z,86.30
2018-03-19T19:40:26.112Z,86.30
2018-03-19T19:42:53.678Z,86.20
2018-03-19T19:45:22.025Z,86.10
2018-03-19T19:47:49.553Z,86.00
2018-03-19T19:50:17.127Z,86.00
2018-03-19T19:52:45.049Z,86.20
2018-03-19T19:55:12.594Z,86.20
2018-03-19T19:57:40.167Z,86.00
2018-03-19T20:00:07.709Z,86.30
2018-03-19T20:02:35.239Z,86.20
2018-03-19T20:05:02.750Z,86.20
2018-03-19T20:07:30.599Z,86.20
2018-03-19T20:09:58.128Z,86.30
2018-03-19T20:12:25.719Z,86.60
2018-03-19T20:14:53.335Z,86.70
2018-03-19T20:17:20.888Z,86.60
2018-03-19T20:19:48.813Z,86.50
2018-03-19T20:22:16.443Z,86.50
2018-03-19T20:24:44.071Z,86.30
2018-03-19T20:27:12.014Z,86.50
2018-03-19T20:29:39.536Z,86.50
2018-03-19T20:32:07.079Z,86.50
2018-03-19T20:34:34.632Z,86.50
2018-03-19T20:37:02.191Z,86.60
2018-03-19T20:39:29.720Z,86.70
2018-03-19T20:41:57.696Z,86.80
2018-03-19T20:44:25.632Z,86.80
2018-03-19T20:46:53.142Z,86.80
2018-03-19T20:49:20.686Z,86.90
2018-03-19T20:51:48.605Z,86.70
2018-03-19T20:54:16.155Z,86.70
2018-03-19T20:56:43.693Z,86.70
2018-03-19T20:59:11.263Z,86.70
2018-03-19T21:01:38.768Z,86.50
2018-03-19T21:04:06.313Z,86.50
2018-03-19T21:06:33.858Z,86.50
2018-03-19T21:09:01.492Z,86.60
2018-03-19T21:11:29.011Z,86.60
2018-03-19T21:13:56.967Z,86.70
2018-03-19T21:16:24.476Z,86.70
2018-03-19T21:18:52.029Z,86.60
2018-03-19T21:21:19.568Z,86.50
2018-03-19T21:23:47.127Z,86.30
2018-03-19T21:26:15.048Z,86.20
2018-03-19T21:28:42.592Z,86.20
2018-03-19T21:31:10.243Z,86.00
2018-03-19T21:33:37.816Z,86.20
2018-03-19T21:36:05.334Z,86.60
2018-03-19T21:38:33.295Z,86.70
2018-03-19T21:41:01.307Z,86.90
2018-03-19T21:43:28.933Z,86.70
2018-03-19T21:45:56.438Z,86.70
2018-03-19T21:48:23.994Z,86.50
2018-03-19T21:50:51.516Z,86.50
2018-03-19T21:53:19.046Z,86.50
2018-03-19T21:55:46.979Z,86.60
2018-03-19T21:58:14.494Z,86.60
2018-03-19T22:00:42.107Z,86.60
2018-03-19T22:03:09.639Z,86.60
2018-03-19T22:05:37.194Z,86.80
2018-03-19T22:08:04.731Z,86.70
2018-03-19T22:10:32.303Z,86.70
2018-03-19T22:12:59.832Z,86.60
2018-03-19T22:15:27.383Z,86.60
2018-03-19T22:17:54.935Z,86.80
2018-03-19T22:20:22.876Z,86.70
2018-03-19T22:22:50.411Z,86.50
2018-03-19T22:25:18.067Z,86.50
2018-03-19T22:27:45.605Z,86.50
2018-03-19T22:30:13.233Z,86.60
2018-03-19T22:32:40.763Z,86.30
2018-03-19T22:35:08.308Z,86.30
2018-03-19T22:37:35.854Z,86.10
2018-03-19T22:40:03.405Z,86.20
2018-03-19T22:42:30.971Z,86.20
2018-03-19T22:44:58.654Z,86.10
2018-03-19T22:47:26.194Z,86.20
2018-03-19T22:49:53.924Z,86.00
2018-03-19T22:52:21.880Z,86.20
2018-03-19T22:54:49.421Z,86.30
2018-03-19T22:57:17.000Z,86.30
2018-03-19T22:59:44.947Z,86.50
2018-03-19T23:02:12.488Z,86.50
2018-03-19T23:04:49.877Z,86.80
2018-03-19T23:07:17.427Z,86.90
2018-03-19T23:09:44.955Z,86.90
2018-03-19T23:12:12.907Z,87.00
2018-03-19T23:14:40.831Z,87.00
2018-03-19T23:17:08.446Z,87.10
2018-03-19T23:19:35.998Z,87.10
2018-03-19T23:22:03.948Z,87.00
2018-03-19T23:24:31.480Z,87.00
2018-03-19T23:26:59.030Z,87.00
2018-03-19T23:29:26.576Z,86.90
2018-03-19T23:31:54.104Z,86.80
2018-03-19T23:34:22.031Z,86.90
2018-03-19T23:36:49.566Z,87.00
2018-03-19T23:39:17.127Z,87.10
2018-03-19T23:41:44.668Z,87.00
2018-03-19T23:44:12.273Z,87.10
2018-03-19T23:46:39.792Z,87.10
2018-03-19T23:49:07.328Z,87.00
2018-03-19T23:51:34.924Z,87.00
2018-03-19T23:54:02.463Z,86.50
2018-03-19T23:56:29.975Z,86.50
2018-03-19T23:58:57.686Z,86.50
